Timeline UpdatesTrip UpdatesNews PostsPvt PostsTravel TipsAdmin PostsConv PostsFollowed PostsChat RequestsBlog PostsPNR Posts

Disclaimer
Search
 
 
Thu Apr 17, 2014 21:00:39 ISTHomeTrainsΣChainsAtlasPNRForumGalleryNewsFAQTripsMembersLoginFeedback
Latest...
Temporary Stop at Vindhyachal for 2 minutes from 31/3/14-11/4/14.
Tue Mar 25, 2014 (07:18PM)
⇐ Return Journey: Train# 12307

12308/Jodhpur-Howrah SF Express

Feb 27 2014 (2:28AM)
Change Departure Station:
Change Arrival Station:
Post a Train Travel TipPost a Train Travel Tip **new
Post a Comment/Question/Picture/VideoPost a Comment/Question/Picture/Video
Pantry/Catering
✓ Pantry Car Avbl
✓ Catering Avbl
RSA - Rake Sharing
Rake/Coach Composition
LOCO-SLR*-GS*-GS*-S13*-S12*-S11*-S10*-B3*-B4*-B2-B1-A1-PC-S9-S8-S7-S6-S5-S4-S3-S2-S1-GS-SLR; ; * markings indicate slip coaches from BKN which are attached at MTD.
Loco
Bgkt wdp - 4 :- Ju to Af ; Hwh...
Read more...
Wap -4 :- Af to Hwh
News    PNR    Forum    Time-Table    Availability    Fare Chart    Map    Arr/Dep History    Trips    Gallery    ΣChains    X/O    Timeline    
Travel Time: 9h 20m    7 halts    Distance: 551 km    Avg Speed: 59 km/hr
Type: SuperFast
Zone: ER/Eastern
Departs @ 20:30 (Avg on time)
Platform# 3
SMTWTFS
Jodhpur Junction/JU 
Arrives @ 05:50 +1 night (Avg 17m late)
Platform# 2
SMTWTFS
Agra Fort/AF 

7 halts. 74 intermediate Stations between Jodhpur Junction and Agra Fort

Hide intermediate Stations  Show Old Time-Table

#CodeStation NameX/OArrivesAvgDepartsAvgHaltPFDay#KmSpeedElevZoneAddress
1JU»Jodhpur Junction (5)»  -20:30+0310.070241mNWRJodhpur, Rajasthan
1.1RKBRaikabagh Palace Junction (2)  20:32-20:32-  12.3 70237mNWRJodhpur, Rajasthan
1.2JUCTJodhpur Cantt. (1)X  20:37-20:37-  18.1 70220mNWRJodhpur, Rajasthan
1.3BNOBanar  20:42-20:42-  114.2 70213mNWRBanar, Rajasthan
1.4JWLJajiwal  20:49-20:49-  122.5 70228mNWRJodhpur, Rajasthan
1.5AASAsranadaX  20:57-20:57-  131.3 70251mNWRState Highway 58, Rajasthan
1.6KSWKheri Salwa  21:04-21:04-  140.4 70269mNWRJajiwal, Rajasthan
1.7PPRPipar Road JunctionX  21:10-21:10-  146.9 70272mNWRState Highway 58, Rajasthan
1.8SWFSathin Road  21:17-21:17-  155.5 70284mNWRUMED, Rajasthan
1.9UMEDUmed  21:26-21:26-  165.8 70308mNWRJodhpur, Rajasthan
1.10KXGKharia Khangarh  21:35-21:35-  176.0 70310mNWRKharia Khangar, Rajasthan
1.11GOTNGotan  21:41-21:41-  183.1 70323mNWRGotan, Rajasthan
1.12JOMJogi Magra (1)  21:49-21:49-  192.9 70335mNWRNagaur, Rajasthan
2MTDMerta Road Junction (4)X21:58+422:20+922m--1103.380322mNWRPhalodi, Rajasthan
2.1KQWKheduli  22:32-22:32-  1118.7 80307mNWRRen, Rajasthan
2.2RENRen  22:33-22:33-  1120.7 80307mNWRNagaur, Rajasthan
2.3JACJalsu  22:43-22:43-  1134.4 80321mNWRNagaur, Rajasthan
2.4JACNJalsu Nanak  22:48-22:48-  1140.0 80331mNWRREN, Rajasthan
3DNADegana Junction (4)O  22:53+1222:56+123m--1147.387339mNWRDegana, Rajasthan
3.1GCHGachhipura  23:06-23:06-  1162.4 87362mNWRNagaur, Rajasthan
3.2BSRLBesroli  23:14-23:14-  1173.7 87378mNWRNagaur, Rajasthan
3.3BOWBorawar  23:22-23:22-  1185.6 87403mNWRBesrol, Rajasthan
4MKNMakrana Junction (2)  23:26+1423:28+162m--1190.857423mNWRMakrana, Rajasthan
5KMNCKuchaman CityX  23:43+1623:45+202m--1204.951404mNWRPalari, Rajasthan
5.1THMRThathana Mithri  23:51-23:51-  1209.7 51388mNWRNawa City, Rajasthan
5.2NYKNaya Kharadia  23:56-23:56-  1214.0 51375mNWRMakrana, Rajasthan
5.3NACNawa City  00:04-00:04-  2220.6 51390mNWRNawa, Rajasthan
5.4GVMRGovindi Marwar  00:14-00:14-  2229.8 51373mNWRSambhar Lake, Rajasthan
5.5GAGudha (1)X  00:27-00:27-  2240.5 51365mNWRPhulera, Rajasthan
5.6SBRSambhar Lake  00:36-00:36-  2248.2 51368mNWRSambhar, Rajasthan
5.7FLPhulera Junction (5)XO  00:45-00:45-  2255.3 51386mNWRPhulera, Rajasthan
5.8HDAHirnoda  00:55-00:55-  2264.0 51400mNWRJaipur, Rajasthan
5.9DHNDDhindaX  01:00-01:00-  2268.0 51386mNWRMDR 59, Rajasthan
5.10JOBAsalpur JobnerX  01:06-01:06-  2273.7 51379mNWRJaipur, Rajasthan
5.11BOBSBobas  01:15-01:15-  2281.1 51396mNWRJaipur, Rajasthan
5.12SHNXSheo Singh PuraX  01:23-01:23-  2288.0 51411mNWRJaipur, Rajasthan
5.13DNKDhanakya  01:28-01:28-  2291.8 51418mNWRJaipur, Rajasthan
5.14BDYKBindayaka  01:33-01:33-  2296.4 51411mNWRJaipur, Rajasthan
5.15KKUKanakpura  01:40-01:40-  2301.5 51429mNWRJaipur, Rajasthan
6JPJaipur Junction (7)X  01:50+102:10+320m12310.473434mNWRJaipur, Rajasthan
6.1GADJJaipur Gandhinagar (2)  02:14-02:14-  2315.9 73426mNWRJaipur, Rajasthan
6.2GTJTGetor Jagatpura (2)X  02:19-02:19-  2321.3 73389mNWRJaipur, Rajasthan
6.3KWPKhatipura (2)  02:24-02:24-  2327.2 73364mNWRGandhinagar, Rajasthan
6.4KUTKanauta (2)X  02:29-02:29-  2333.8 73350mNWRJaipur, Rajasthan
6.5BAIBassi (3)  02:37-02:37-  2343.0 73352mNWRJaipur, Rajasthan
6.6JHIRJhir (2)  02:42-02:42-  2349.8 73377mNWRKanauta, Rajasthan
6.7BSKOBanskho (2)  02:44-02:44-  2352.5 73362mNWRJaipur, Rajasthan
6.8JWJatwara (2)  02:50-02:50-  2359.9 73329mNWRDausa, Rajasthan
6.9BNDNBhandana (2)X  02:54-02:54-  2364.6 73329mNWRBanskho, Rajasthan
6.10DODausa (2)  03:00-03:00-  2371.9 73333mNWRDausa, Rajasthan
6.11BAKBhan Kari (2)  03:09-03:09-  2382.6 73301mNWRDausa, Rajasthan
6.12KVGMKolvagram (2)  03:14-03:14-  2389.2 73294mNWRBandikui, Rajasthan
6.13ARNAArnia (2)  03:19-03:19-  2394.6 73288mNWRBandikui, Rajasthan
6.14BKIBandikui Junction (6)  03:24-03:24-  2400.7 73283mNWRBandikui, Rajasthan
6.15SHGNShri Ghasinagar (1)  03:36-03:36-  2415.9 73263mNCRBandikui, Rajasthan
6.16BWBiwai (1)  03:40-03:40-  2420.0 73256mNCRBandikui, Rajasthan
6.17BJRABhajera (1)  03:43-03:43-  2424.2 73253mNCRMandawar, Rajasthan
6.18KPOKaranpura (1)  03:44-03:44-  2425.1 73252mNCRBandikui, Rajasthan
6.19BUDABhuda (1)  03:46-03:46-  2427.7 73253mNCRKheril, Rajasthan
6.20MURDMandawar Mahwa Road (1)  03:50-03:50-  2432.6 73242mNCRMandawar, Rajasthan
6.21GOSGhosrana (1)  03:56-03:56-  2439.9 73230mNCRKheril, Rajasthan
6.22DTFDantla (1)  04:01-04:01-  2446.2 73224mNCRDantia, Rajasthan
6.23KLKherli (1)  04:06-04:06-  2452.7 73219mNCRKherli, Rajasthan
6.24TBLTarchhera Baraoliran (1)  04:13-04:13-  2460.7 73210mNCRTalchherra, Rajasthan
6.25NBINadbai (1)  04:20-04:20-  2469.0 73203mNCRNadbai, Rajasthan
6.26PPEAPaprera (1)  04:28-04:28-  2479.2 73187mNCRNadbai, Rajasthan
6.27HKHelak (1)  04:33-04:33-  2485.7 73183mNCRBharatpur, Rajasthan
7BTEBharatpur Junction (5)  04:43+704:45+72m--2497.582174mWCRBharatpur, Rajasthan
7.1NHBNoh Bachhamdi (1)  04:50-04:50-  2504.2 82174mNCRBharatpur, Rajasthan
7.2IKIkran (1)  04:54-04:54-  2509.8 82171mNCRBharatpur, Rajasthan
7.3CIKChiksana (1)  04:58-04:58-  2515.1 82177mNCRBharatpur, Rajasthan
8AHAchhnera Junction (3)  05:05+1305:07+152m--2524.836170mNCRAgra District, Uttar Pradesh
8.1RAIRaibha (1)X  05:15-05:15-  2529.5 36171mNCRBichpuri, Uttar Pradesh
8.2BCPBichpuri (1)X  05:33-05:33-  2540.3 36176mNCRAgra District, Uttar Pradesh
8.3IDHIdgah Agra Junction (3)  05:46-05:46-  2548.7 36168mNCRAgra, Uttar Pradesh
9AF•Agra Fort (3)•XO05:50+1706:15+1625m22550.917170mNCRRakabganj, Uttar Pradesh
9.1JABYamuna Bridge Agra (3)X  06:24-06:24-  2553.4 17168mNCRAgra, Uttar Pradesh
9.2CHLRChhalesar (2)  06:44-06:44-  2559.1 17166mNCRDistrict Agra, Uttar Pradesh
9.3KBPKuberpur (2)X  06:58-06:58-  2563.2 17170mNCRNational Highway 2, Uttar Pradesh
9.4ETUEEtmadpur (3)  07:22-07:22-  2570.0 17166mNCREtmadpur, Uttar Pradesh
10TDLTundla Junction (4)XT07:35+3507:38+423m--2573.892167mNCRDistt.Firozabad, Uttar Pradesh
10.1HNGHirangaon (2)X  07:44-07:44-  2582.6 92166mNCRNational Highway 2, Uttar Pradesh
10.2FZDFirozabad (4)X  07:49-07:49-  2590.4 92164mNCRFirozabad, Uttar Pradesh
10.3MNRMakkhanpur (2)X  07:55-07:55-  2600.3 92166mNCRNational Highway 2, Uttar Pradesh
10.4SKBShikohabad Junction (4)X  08:02-08:02-  2610.3 92166mNCRDistrict Firozabad, Uttar Pradesh
10.5KAAKaurara (3)X  08:09-08:09-  2621.2 92160mNCRFirozabad Distt, Uttar Pradesh
10.6BDNBhadan (2)X  08:15-08:15-  2630.2 92160mNCRFirozabad, Uttar Pradesh
10.7BBLBalrai (3)O  08:22-08:22-  2641.0 92157mNCRBalrai, Uttar Pradesh
10.8JGRJaswantnagar (2)  08:28-08:28-  2649.7 92154mNCRJaswantnagar, Uttar Pradesh
10.9SBSarai Bhopat (2)  08:33-08:33-  2657.3 92151mNCREtawah(05688-1072), Uttar Pradesh
11ETWEtawah (5)X  08:38+3108:40+312m32665.762154mNCRDistt. Etawah, Uttar Pradesh
11.1EKLEkdil (2)  08:49-08:49-  2675.4 62150mNCRSarai Ikdil, Uttar Pradesh
11.2BNTBharthana (3)X  08:59-08:59-  2685.5 62147mNCRBharthana, Uttar Pradesh
11.3SHWSamhon (2)  09:09-09:09-  2696.0 62144mNCRSamahon, Uttar Pradesh
11.4GHSRGhasara Halt (1)  09:13-09:13-  2699.6 62146mNCRPhaphund, Uttar Pradesh
11.5ULDAchalda (3)X  09:18-09:18-  2705.1 62147mNCRDist. Auraiya(05688-1072), Uttar Pradesh
11.6PATAPata (3)X  09:26-09:26-  2713.4 62143mNCRPhaphund, Uttar Pradesh
11.7PHDPhaphund (4)  09:34-09:34-  2721.8 62146mNCRdist. Auraiya, Uttar Pradesh
11.8KNSKanchausiX  09:43-09:43-  2730.8 62143mNCRState Highway 21, Uttar Pradesh
11.9PJYPara Jani Halt  09:48-09:48-  2735.8 62139mNCRPara Jani, Uttar Pradesh
11.10JJKJhinjhak (3)  09:54-09:54-  2741.7 62140mNCRAuraiya, Uttar Pradesh
11.11AAPAmbiapurX  10:04-10:04-  2751.9 62140mNCRJhinjhak, Uttar Pradesh
11.12RURARura (4)  10:12-10:12-  2760.7 62137mNCRJhinjhak, Uttar Pradesh
11.13RMWRoshan Mau  10:19-10:19-  2768.4 62135mNCRRoshan Mau, Uttar Pradesh
11.14MTOMaitha  10:23-10:23-  2772.4 62235mNCRMDR 78C, Uttar Pradesh
11.15BPUBhaupurX  10:33-10:33-  2782.3 62133mNCRKANPUR Dehat-209 307, Uttar Pradesh
11.16PNKPanki (3)  10:44-10:44-  2793.5 62129mNCRKANPUR-208 020, Uttar Pradesh
11.17GOYGovindpuri Junction (2)  10:51-10:51-  2801.2 62129mNCRKANPUR-208 006, Uttar Pradesh
11.18CPNLKanpur C Panel  10:52-10:52-  2801.6 62127mNCRKanpur, Uttar Pradesh
11.19CNJOJuhi Outer Cabin  10:52-10:52-  2802.2 62131mNCRKanpur, Uttar Pradesh
11.20GMCKanpur Goods Marshalling Yard  10:54-10:54-  2803.8 62128mNCRKanpur-208 014, Uttar Pradesh
12CNBKanpur Central (10)X  10:55+4111:10+4015m72805.076128mNCRKanpur, Uttar Pradesh
12.1CNBIChandari (2)  11:14-11:14-  2809.6 76125mNCRKanpur Cantt, Uttar Pradesh
12.2CHKChakeri (2)  11:19-11:19-  2816.4 76126mNCRKANPUR-208 008, Uttar Pradesh
12.3RXMRooma (2)X  11:23-11:23-  2821.0 76125mNCRKANPUR-208 008, Uttar Pradesh
12.4SSLSirsaul (1)  11:28-11:28-  2827.6 76125mNCRKANPUR-209 402, Uttar Pradesh
12.5PMPRPrempurX  11:33-11:33-  2833.7 76125mNCRNational Highway 2, Uttar Pradesh
12.6KBNKarbigwanX  11:37-11:37-  2839.0 76121mNCRFatehpur, Uttar Pradesh
12.7AUNGAungX  11:42-11:42-  2845.4 76123mNCRNational Highway 2, Uttar Pradesh
12.8BKOBindki Road  11:46-11:46-  2851.3 76124mNCRFatehpur, Uttar Pradesh
12.9KSQKanspur Gugauli  11:53-11:53-  2859.3 76124mNCRNational Highway 2, Uttar Pradesh
12.10MWHMalwan (2)  11:58-11:58-  2866.5 76122mNCRFatehpur, Uttar Pradesh
12.11KKSKurasti Kalan  12:05-12:05-  2875.6 76119mNCRJoniha Rd, Uttar Pradesh
13FTPFatehpur (3)  12:11+5312:13+532m--2882.665120mNCRFatehpur, Uttar Pradesh
13.1RAMARamvaX  12:18-12:18-  2888.5 65116mNCRforcing detours between Kanpur and Varanasi, Uttar Pradesh
13.2FYZFaizullapurX  12:23-12:23-  2893.7 65115mNCRFaizullapur, Uttar Pradesh
13.3RUBRasulabadX  12:31-12:31-  2902.8 65118mNCRRasulabad, Uttar Pradesh
13.4SNIESath NarainiX  12:38-12:38-  2909.8 65114mNCRNational Highway 2, Uttar Pradesh
13.5KGAKhaga (3)X  12:45-12:45-  2917.3 65114mNCRFatehpur, Uttar Pradesh
13.6KTCEKatoghan  12:51-12:51-  2924.2 65109mNCRNational Highway 2, Uttar Pradesh
13.7KUWKanwar  12:57-12:57-  2930.3 65110mNCRNational Highway 2, Uttar Pradesh
13.8ASCEAthsaraiX  13:02-13:02-  2935.7 65107mNCRAthsarai, Uttar Pradesh
13.9SROSirathu (2)X  13:08-13:08-  2942.2 65109mNCRSirathu, Uttar Pradesh
13.10SJTShujaatpur  13:17-13:17-  2952.0 65107mNCRNational Highway 2, Uttar Pradesh
13.11BDNPBidanpurX  13:22-13:22-  2958.2 65106mNCRBidanpur, Uttar Pradesh
13.12BREBharwari  13:26-13:26-  2962.3 65108mNCRBharwari, Uttar Pradesh
13.13MNJManoharGanj  13:33-13:33-  2970.1 65104mNCRNational Highway 2, Uttar Pradesh
13.14SYWNSaiyid Sarawan  13:40-13:40-  2977.5 65106mNCR212203 ?, Uttar Pradesh
13.15MREManauri  13:44-13:44-  2982.1 65105mNCRSabderganj-Fatehpur Rd, Uttar Pradesh
13.16BMUBamhrauli  13:52-13:52-  2990.6 65102mNCRAllahabad, Uttar Pradesh
13.17SFGSubedarGanj (3)  13:57-13:57-  2995.6 65100mNCRAllahabad, Uttar Pradesh
14ALDAllahabad Junction (10)  14:00+1:0714:10+1:1110m22999.379100mNCRAllahabad 211003, Uttar Pradesh
14.1NYNNaini Junction (4)  14:16-14:16-  21006.8 7998mNCRAllahabad, Uttar Pradesh
14.2COIChheoki Junction (3)  14:17-14:17-  21008.5 7996mNCRDist.-Allahabad, Uttar Pradesh
14.3KCNKarchana  14:24-14:24-  21017.4 7994mNCRKarchana, Uttar Pradesh
14.4BEPBheerpurX  14:31-14:31-  21026.6 7994mNCRNH 76, Uttar Pradesh
14.5MJAMeja Road (4)  14:39-14:39-  21037.8 7994mNCRDistrict Allahabad, Uttar Pradesh
14.6UNDUnchdih  14:45-14:45-  21046.0 7994mNCRUnchdih, Uttar Pradesh
14.7MNFManda Road  14:52-14:52-  21054.0 7993mNCRNH 76, Uttar Pradesh
14.8JIAJigna (1)  14:58-14:58-  21062.4 7994mNCRNational Highway 76, Uttar Pradesh
14.9GAEGaipura (4)  15:03-15:03-  21069.2 7986mNCRGaipura, Uttar Pradesh
14.10BEOBirohe  15:09-15:09-  21076.8 7983mNCRNational Highway 76, Uttar Pradesh
14.11BDLVindhyachal (3)15:12-15:12-  21081.6 7988mNCRMirzapur, Uttar Pradesh
15MZPMirzapur (3)X  15:18+2:1315:20+2:152m--21088.94288mNCRMirzapur, Uttar Pradesh
15.1JHGJhinguraX  15:32-15:32-  21097.2 4285mNCRNational Highway 7, Uttar Pradesh
15.2PREPaharaX  15:43-15:43-  21104.7 4287mNCRNational Highway 7, Uttar Pradesh
15.3DAPDagmagpur  15:54-15:54-  21112.8 4288mNCRDagmagpur, Uttar Pradesh
15.4CARChunar Junction (5)X  16:05-16:05-  21120.2 4285mNCRChunar Junction, Uttar Pradesh
15.5KYTKailahatX  16:18-16:18-  21129.8 4284mNCRKailahat, Uttar Pradesh
15.6ARWAhraura Road  16:30-16:30-  21138.3 4285mNCRDist. Mirzapur, Uttar Pradesh
15.7JEPJeonathpur  16:39-16:39-  21144.2 4283mNCRNational Highway 7, Uttar Pradesh
15.8NEWCNew West Cabin  16:48-16:48-  21150.8 4280mECRMughal Sarai, Uttar Pradesh
16MGSMughal Sarai Junction (8)X  16:50+3:0717:05+3:0815m121152.18483mECRMughalsarai 232101, Uttar Pradesh
16.1FOCMFlyover Cabin Mughal Sarai  17:10-17:10-  21158.5 8480mECRChandauli Mjhwr, Uttar Pradesh
16.2GAQGanj KhawajaX  17:11-17:11-  21160.9 8479mECRChandauli Mjhwr, Uttar Pradesh
16.3CDMRChandauli MajhwarX  17:17-17:17-  21169.5 8480mECRNational Highway 2, Uttar Pradesh
16.4SYJSaidrajaX  17:23-17:23-  21177.8 8480mECRSaiyedraja, Uttar Pradesh
16.5KMSKaramnasa  17:29-17:29-  21186.1 8478mECRNational Highway 2, Uttar Pradesh
16.6DCXDhanaichha  17:34-17:34-  21192.3 8475mECRNational Highway 2, Bihar
16.7DGODurgauti  17:38-17:38-  21197.7 8476mECRDistt Kaimur, Bihar
17BBUBhabua Road (4)  17:44+3:1917:46+3:202m--21206.68980mECR06187-222222, Bihar
17.1MTGEMuthaniX  17:50-17:50-  21212.1 8983mECRNational Highway 2, Bihar
17.2PSEPusauli  17:55-17:55-  21219.9 8986mECRDistt: Rohtas, Bihar
17.3KTQKudra (2)  18:01-18:01-  21229.0 8992mECRKudra, Bihar
17.4KVDKhurmabad Road  18:06-18:06-  21235.9 8993mECRKhurmabad, Bihar
17.5SSGShiu Sagar RoadX  18:09-18:09-  21240.6 8999mECRShiu Sagar Rd, Bihar
17.6KMGEKumahu  18:13-18:13-  21246.3 89101mECRKamahu, Bihar
18SSMSasaram Junction (4)X  18:18+3:2118:20+3:212m--21254.259111mECR06184-222051, Bihar
18.1KWDKarwandia  18:27-18:27-  21260.7 59113mECRKarwandiya, Bihar
18.2PHEPahaleja Halt  18:33-18:33-  21267.4 59112mECRPahaleja, Bihar
19DOSDehri On Sone (6)  18:38+3:2118:40+3:212m--21271.877114mECRRohtas(06184-253154), Bihar
19.1ADSRADSR  18:41-18:41-  21272.8 77113mECRDehri, Bihar
19.2SEBSon Nagar Junction (4)  18:44-18:44-  21277.6 77110mECRBarun, Bihar
19.3CPBHChiraila  18:49-18:49-  21283.4 77104mECRBarun, Bihar
20AUBRAnugraha Narayan Road (4)  18:53+3:2418:55+3:242m--21288.553104mECR06186-285271, Bihar
20.1PESPhesarX  19:05-19:05-  21297.4 53104mECRpheshar, Bihar
20.2BHKHBaghoi KusaX  19:10-19:10-  21301.9 5398mECRbel Rd, Bihar
20.3JHNJakhim  19:18-19:18-  21308.5 5393mECRbel Rd, Bihar
20.4DORDDeo Road  19:22-19:22-  21312.2 53102mECRMaluk Bigha, Bihar
20.5RFJRafiGanj (4)X  19:30-19:30-  21319.3 53102mECRRafiganj, Bihar
20.6IMGEIsmailpur  19:41-19:41-  21328.6 53114mECRState Highway 69, Bihar
20.7GRRUGuraru  19:49-19:49-  21335.4 53114mECRGuraru, Bihar
20.8PRYParaiya  19:55-19:55-  21341.4 53111mECRparaiya station Rd, Bihar
20.9KSTAKasthaX  20:03-20:03-  21348.5 53113mECRGaya, Bihar
20.10WCBGaya West Cabin  20:09-20:09-  21353.6 53111mECRGaya, Bihar
21GAYAGaya Junction (9)X  20:13+3:0120:18+3:015m221356.969117mECR0631-2220283, Bihar
21.1SICYShaheed Ishwar Chowdhary Halt  20:21-20:21-  21360.5 69112mECRManpur, Bihar
21.2MPOManpur Junction  20:23-20:23-  21362.2 69113mECRGaya, Bihar
21.3BNFBandhuaX  20:29-20:29-  21369.4 69124mECRState Highway 70, Bihar
21.4TKNTankuppa  20:35-20:35-  21377.0 69127mECRState Highway 70, Bihar
21.5BNSLBansinala Halt  20:41-20:41-  21383.0 69135mECRBansinala, Bihar
21.6PRPPaharpurX  20:46-20:46-  21389.3 69150mECRGaya, Bihar
21.7GAPGurpa  20:56-20:56-  21400.9 69192mECRLodhwe, Bihar
21.8YGMYadugram Block Hut  20:59-20:59-  21404.3 69210mECRYadugram Block Hut, Jharkhand
21.9BSCPBaskatwa B. H.  21:03-21:03-  21409.0 69273mECRMurli, Bihar
21.10NGYNath Ganj  21:04-21:04-  21410.5 69284mECRMurli, Bihar
21.11DLWDilwa  21:10-21:10-  21416.6 69346mECRNational Highway 31, Bihar
21.12LBZLalbag Block Hut  21:14-21:14-  21421.2 69389mECRState Highway 70, Bihar
21.13GJDGujhandi  21:15-21:15-  21423.3 69386mECRNational Highway 31, Jharkhand
22KQRKoderma Junction (7)  21:24+3:0921:26+3:092m--21433.378399mECR06534-222410 Koderma, Jharkhand
22.1LRBLarabadX  21:30-21:30-  21437.9 78393mECRJhumri Telaiya, Jharkhand
22.2HREHirodihX  21:33-21:33-  21442.4 78371mECRJhumri Telaiya, Jharkhand
22.3SMNDSarmatanrX  21:39-21:39-  21450.2 78351mECRKoderma, Jharkhand
22.4YDDYadudihX  21:42-21:42-  21454.2 78352mECRNational Highway 2, Jharkhand
22.5PSBParsabad (3)  21:46-21:46-  21459.6 78346mECRNational Highway 2, Jharkhand
22.6DSMEDasara  21:51-21:51-  21466.1 78342mECRSariya - Parsiya Road, Jharkhand
22.7CBHChaube  21:55-21:55-  21471.1 78325mECRParsabad, Jharkhand
22.8KSHRKeshwariX  21:59-21:59-  21475.9 78313mECRMandramo, Jharkhand
22.9HZDHazaribagh Road (3)  22:03-22:03-  21481.6 78330mECRHazaribagh, Jharkhand
22.10CCKChichaki  22:07-22:07-  21486.6 78308mECRNational Highway 2, Jharkhand
22.11GRBHGarea Bihar  22:09-22:09-  21488.6 78315mECRSariya - Parsiya Rd, Jharkhand
22.12UDLWAndal West Cabin  22:09-22:09-  21489.6 78323mERAndal, Jharkhand
22.13CDBChaudhribandh  22:11-22:11-  21491.4 78314mECRMaipatoli, Jharkhand
22.14CEMEChegroX  22:14-22:14-  21495.7 78333mECRBeko, Jharkhand
23PNMEParasnath (5)X  22:24+3:0322:26+3:052m221508.739282mECRGiridih 06532-233419, Jharkhand
23.1NMGNimiaghat  22:38-22:38-  21516.3 39268mECRNational Highway 2, Jharkhand
23.2BLMEBholldih  22:46-22:46-  21521.9 39241mECRGomoh, Jharkhand
23.3GMONetaji SC Bose Gomoh Junction (6)X  22:54-22:54-  21526.7 39239mECRGomoh, Jharkhand
23.4MRQMatari  23:09-23:09-  21536.2 39246mECRDhanbad, Jharkhand
23.5NPJENichitpurX  23:17-23:17-  21541.5 39224mECRKatras, Jharkhand
23.6TETTetulmari  23:26-23:26-  21547.3 39225mECRTetulmari, Jharkhand
23.7BHNBhuliX  23:34-23:34-  21552.6 39230mECRKusunda, Jharkhand
24DHNDhanbad Junction (8)X  23:40+2:4123:50+2:4110m221556.561235mECR2319801. Div. HQ ECR, Jharkhand
24.1DOKMDokra Halt (2)  23:55-23:55-  21561.8 61211mECRDokra, Jharkhand
24.2PKAPradhankhunta Junction (3)  23:59-23:59-  21565.6 61202mECRDhanbad, Jharkhand
24.3CAMChhota Ambana (3)  00:05-00:05-  31571.7 61200mERDhanbad, Jharkhand
24.4KAOKalubathan (2)  00:14-00:14-  31580.8 61195mERDhanbad, Jharkhand
24.5TNWThapar Nagar (2)X  00:18-00:18-  31585.0 61144mERDhanbad, Jharkhand
24.6MMUMugma (3)  00:23-00:23-  31590.3 61135mERNational Highway 2, Jharkhand
24.7KMMEKumardubi (2)  00:28-00:28-  31595.0 61135mERDhanbad - 828203(06540-222077), Jharkhand
24.8BRRBarakar (2)X  00:30-00:30-  31597.5 61129mERDist. Bardhaman, West Bengal
24.9ULTKulti (3)  00:33-00:33-  31600.7 61148mERdist - bardhaman, West Bengal
24.10STNSitarampur Junction (5)X  00:38-00:38-  31605.9 61139mERG T Rd Before Asansol, West Bengal
24.11BCQBarachak Junction (4)  00:42-00:42-  31609.6 61127mERdist - bardhaman, West Bengal
25ASNAsansol Junction (7)X00:47+2:4600:52+2:475m331614.772113mERDist - bardhaman, West Bengal
25.1ASNEAsansol East  00:53-00:53-  31616.3 72110mERAsansol, West Bengal
25.2KPKKalipahari (4)X  00:56-00:56-  31620.0 72106mERBardhaman distt, West Bengal
25.3NMCNimchaXO  01:04-01:04-  31629.0 72106mERRaniganj, West Bengal
25.4RNGRaniGanj (4)  01:07-01:07-  31632.8 7292mERRaniganj, West Bengal
25.5BQTBakhtarnagarX  01:11-01:11-  31637.3 7287mERKajora, West Bengal
25.6UDLAndal Junction (6)X  01:13-01:13-  31640.1 7286mERAndal, West Bengal
25.7UDLEAndal East Cabin  01:15-01:15-  31642.1 7280mERAndal, West Bengal
25.8EOCAndal East Outer Cabin  01:15-01:15-  31642.5 7280mERAndal, West Bengal
25.9POLPinjrapolX  01:18-01:18-  31646.3 7280mERDurgapur, West Bengal
25.10OYRWaria (4)  01:20-01:20-  31648.3 7272mERDurgapur, West Bengal
25.11DCOPDurgapur Coke Oven PlantX  01:25-01:25-  31654.6 7278mERDurgapur, West Bengal
25.12DGRDurgapur (5)  01:27-01:27-  31657.1 7271mERDurgapur, West Bengal
25.13RBHRajbandhX  01:34-01:34-  31664.9 7272mERRajbandh Rail Station Rd, West Bengal
25.14PANPanagarh (4)X  01:40-01:40-  31672.8 7270mERKaksa, West Bengal
25.15MNAEMankar (4)X  01:49-01:49-  31682.9 7265mERMankur, West Bengal
25.16PAJParaj  01:56-01:56-  31691.2 7252mERNational Highway 2, West Bengal
25.17GLIGalsi (4)X  02:01-02:01-  31697.7 7247mERBardhaman, West Bengal
25.18INCIIshan Chandi Halt  02:06-02:06-  31704.3 7243mERDist - Bardhaman, West Bengal
25.19KANKhana Junction (5)  02:09-02:09-  31707.6 7242mERDist - Bardhaman, West Bengal
25.20TITTalit (4)  02:14-02:14-  31713.1 7237mERDist - Bardhaman, West Bengal
26BWNBarddhaman Junction (8)  02:20+2:4502:22+2:452m431720.75834mERDist - Barddhaman, West Bengal
26.1GRPGangpur (4)  02:29-02:29-  31727.7 5829mERGangpur, West Bengal
26.2SKGSaktigarh (7)  02:35-02:35-  31732.7 5828mERSaktigarh, West Bengal
26.3PRAEPalla Road (4)  02:39-02:39-  31737.5 5830mERDuragapur Expressway (NH 2), West Bengal
26.4CHCChanchai (3)  02:42-02:42-  31740.4 5825mERChanchai, West Bengal
26.5MSAEMasagram Junction (6)  02:46-02:46-  31743.6 5825mERDist - bardhaman, West Bengal
26.6NBAENabagram (3)  02:49-02:49-  31746.6 5822mERDattapur, West Bengal
26.7JRAEJaugram (3)  02:53-02:53-  31750.8 5823mERAstai, West Bengal
26.8JPQJhapandanga (3)  02:55-02:55-  31752.9 5821mERBurdwan., West Bengal
26.9GRAEGurap (4)  03:00-03:00-  31757.7 5820mERMagra-Gurup Road, West Bengal
26.10HIHHajigarh (3)  03:03-03:03-  31759.9 5820mERDurgapur Expressway, West Bengal
26.11CRAECheragram Block Hut  03:04-03:04-  31761.4 5816mERDurgapur Expy, West Bengal
26.12SHBCSibaichandi (3)  03:07-03:07-  31763.8 5816mERBainchi-Dhaniakali Road, West Bengal
26.13DNHLDhaniakhali Halt (3)  03:10-03:10-  31766.7 5814mERChunchura-Dhaniakali Rd, West Bengal
26.14BMAEBelmuri (3)  03:12-03:12-  31768.8 5815mERBelmuri Dhaniakhali Rd, West Bengal
26.15PBZPorabazar (3)  03:14-03:14-  31770.8 5814mERPorabazar Makalpur Rd, West Bengal
26.16CDAEChandanpur (4)  03:18-03:18-  31775.0 5815mERDist - hooghly, West Bengal
26.17MDSEMadhu Sudanpur (3)  03:23-03:23-  31779.5 5811mERState Highway 2, West Bengal
26.18KQLSKamarkundu (lower) (3)  03:26-03:26-  31782.3 5812mERKamarkundu, West Bengal
26.19KQUKamarkundu (5)  03:26-03:26-  31782.3 5813mERDist - Hooghly, West Bengal
26.20BLAEBalarambati (3)  03:28-03:28-  31784.1 5816mERState Highway 2, West Bengal
26.21MBEMirzapur Bankipur (3)  03:30-03:30-  31786.1 5816mERSingpara Rd, West Bengal
26.22BRPABarui Para (4)  03:33-03:33-  31789.2 5812mER31 no Rd, West Bengal
26.23BPAEBegumpur (3)  03:37-03:37-  31793.0 5811mERChanditala-Sreerampore Rd, West Bengal
26.24JOXJanai Road (4)  03:39-03:39-  31794.9 588mERJanai Rd Railway Station, West Bengal
26.25GBRAGobra (3)  03:43-03:43-  31798.2 586mERStation Pally, West Bengal
26.26DKAEDankuni Junction (5)  03:45-03:45-  31800.5 587mERDist - Hooghly, West Bengal
26.27BZLBelanagar (2)  03:49-03:49-  31804.2 588mERNational Highway 34, West Bengal
26.28BLYBally (6)  03:51-03:51-  31806.8 588mERDist - Howrah, West Bengal
26.29BEQBelur (5)  03:54-03:54-  31808.8 588mERHowrah, West Bengal
26.30LLHLiluah (5)  03:55-03:55-  31810.5 5810mERHowrah, West Bengal
26.31SYAELiluah Sorting  03:57-03:57-  31811.8 585mERLiluah Sorting, West Bengal
26.32HWHGHowrah Goods Cabin  03:59-03:59-  31814.1 586mERHowrah, West Bengal
27HWHKolkata Howrah Junction (23)  04:00+2:21-931815.1-10mERHowrah 711101, West Bengal
Scroll to Top
Scroll to Bottom